sensor_id;sensor_type;location;lat;lon;timestamp;pressure;altitude;pressure_sealevel;temperature;humidity
12763;BME280;6445;52.490;13.378;2023-02-23T00:01:00;28066.84;;;-146.10;100.00
12763;BME280;6445;52.490;13.378;2023-02-23T00:03:33;26285.69;;;-146.10;100.00
12763;BME280;6445;52.490;13.378;2023-02-23T00:06:02;25776.94;;;-146.10;100.00
12763;BME280;6445;52.490;13.378;2023-02-23T00:08:27;24251.06;;;-146.10;100.00
12763;BME280;6445;52.490;13.378;2023-02-23T00:10:52;23488.34;;;-146.10;100.00
12763;BME280;6445;52.490;13.378;2023-02-23T00:13:22;21963.38;;;-146.10;100.00
12763;BME280;6445;52.490;13.378;2023-02-23T00:15:47;20693.03;;;-146.10;100.00
12763;BME280;6445;52.490;13.378;2023-02-23T00:18:12;19931.03;;;-146.10;100.00
12763;BME280;6445;52.490;13.378;2023-02-23T00:20:38;18915.22;;;-146.10;100.00
12763;BME280;6445;52.490;13.378;2023-02-23T00:23:08;18407.44;;;-146.10;100.00
12763;BME280;6445;52.490;13.378;2023-02-23T00:25:33;17645.88;;;-146.10;100.00
12763;BME280;6445;52.490;13.378;2023-02-23T00:28:03;17138.25;;;-146.10;100.00
12763;BME280;6445;52.490;13.378;2023-02-23T00:30:28;16123.19;;;-146.10;100.00
12763;BME280;6445;52.490;13.378;2023-02-23T00:32:54;15108.41;;;-146.10;100.00
12763;BME280;6445;52.490;13.378;2023-02-23T00:35:19;15108.41;;;-146.10;100.00
12763;BME280;6445;52.490;13.378;2023-02-23T00:37:48;14093.88;;;-146.10;100.00
12763;BME280;6445;52.490;13.378;2023-02-23T00:40:17;13586.72;;;-146.10;100.00
12763;BME280;6445;52.490;13.378;2023-02-23T00:42:46;13333.16;;;-146.10;100.00
12763;BME280;6445;52.490;13.378;2023-02-23T00:45:12;13079.59;;;-146.10;100.00
12763;BME280;6445;52.490;13.378;2023-02-23T00:47:40;12065.63;;;-146.10;100.00
12763;BME280;6445;52.490;13.378;2023-02-23T00:50:11;11051.88;;;-146.10;100.00
12763;BME280;6445;52.490;13.378;2023-02-23T00:52:38;10545.13;;;-146.10;100.00
12763;BME280;6445;52.490;13.378;2023-02-23T00:55:05;10038.41;;;-146.10;100.00
12763;BME280;6445;52.490;13.378;2023-02-23T00:57:32;9531.78;;;-146.10;100.00
12763;BME280;6445;52.490;13.378;2023-02-23T00:59:57;9025.22;;;-146.10;100.00
12763;BME280;6445;52.490;13.378;2023-02-23T01:02:22;8265.50;;;-146.10;100.00
12763;BME280;6445;52.490;13.378;2023-02-23T01:04:48;7759.09;;;-146.10;100.00
12763;BME280;6445;52.490;13.378;2023-02-23T01:07:13;7759.09;;;-146.10;100.00
12763;BME280;6445;52.490;13.378;2023-02-23T01:09:39;7252.75;;;-146.10;100.00
12763;BME280;6445;52.490;13.378;2023-02-23T01:12:04;6746.47;;;-146.10;100.00
12763;BME280;6445;52.490;13.378;2023-02-23T01:14:32;6493.38;;;-146.10;100.00
12763;BME280;6445;52.490;13.378;2023-02-23T01:16:58;5987.19;;;-146.10;100.00
12763;BME280;6445;52.490;13.378;2023-02-23T01:19:23;6240.28;;;-146.10;100.00
12763;BME280;6445;52.490;13.378;2023-02-23T01:21:48;5481.09;;;-146.10;100.00
12763;BME280;6445;52.490;13.378;2023-02-23T01:24:14;5481.09;;;-146.10;100.00
12763;BME280;6445;52.490;13.378;2023-02-23T01:26:41;4722.06;;;-146.10;100.00
12763;BME280;6445;52.490;13.378;2023-02-23T01:29:10;4469.09;;;-146.10;100.00
12763;BME280;6445;52.490;13.378;2023-02-23T01:31:38;3963.19;;;-146.10;100.00
12763;BME280;6445;52.490;13.378;2023-02-23T01:34:05;3963.19;;;-146.10;100.00
12763;BME280;6445;52.490;13.378;2023-02-23T01:36:35;3710.25;;;-146.10;100.00
12763;BME280;6445;52.490;13.378;2023-02-23T01:39:01;3710.25;;;-146.10;100.00
12763;BME280;6445;52.490;13.378;2023-02-23T01:41:27;3457.34;;;-146.10;100.00
12763;BME280;6445;52.490;13.378;2023-02-23T01:44:05;3204.44;;;-146.10;100.00
12763;BME280;6445;52.490;13.378;2023-02-23T01:46:35;2951.56;;;-146.10;100.00
12763;BME280;6445;52.490;13.378;2023-02-23T01:49:03;2445.88;;;-146.10;100.00
12763;BME280;6445;52.490;13.378;2023-02-23T01:51:31;2445.88;;;-146.10;100.00
12763;BME280;6445;52.490;13.378;2023-02-23T01:54:06;2193.03;;;-146.10;100.00
12763;BME280;6445;52.490;13.378;2023-02-23T01:56:35;1434.66;;;-146.10;100.00
12763;BME280;6445;52.490;13.378;2023-02-23T01:59:07;1940.22;;;-146.10;100.00
12763;BME280;6445;52.490;13.378;2023-02-23T02:01:36;1687.44;;;-146.10;100.00
12763;BME280;6445;52.490;13.378;2023-02-23T02:04:03;1687.44;;;-146.10;100.00
12763;BME280;6445;52.490;13.378;2023-02-23T02:06:33;1434.66;;;-146.10;100.00
12763;BME280;6445;52.490;13.378;2023-02-23T02:09:05;1434.66;;;-146.10;100.00
12763;BME280;6445;52.490;13.378;2023-02-23T02:11:33;1434.66;;;-146.10;100.00
12763;BME280;6445;52.490;13.378;2023-02-23T02:14:08;1687.44;;;-146.10;100.00
12763;BME280;6445;52.490;13.378;2023-02-23T02:19:47;1434.66;;;-146.10;100.00
12763;BME280;6445;52.490;13.378;2023-02-23T02:22:43;423.72;;;-146.10;100.00
12763;BME280;6445;52.490;13.378;2023-02-23T02:36:10;-334.34;;;-146.10;100.00
12763;BME280;6445;52.490;13.378;2023-02-23T02:38:59;-586.97;;;-146.10;100.00
12763;BME280;6445;52.490;13.378;2023-02-23T02:41:41;-586.97;;;-146.10;100.00
12763;BME280;6445;52.490;13.378;2023-02-23T02:44:20;-1092.22;;;-146.10;100.00
12763;BME280;6445;52.490;13.378;2023-02-23T02:46:48;-1092.22;;;-146.10;100.00
12763;BME280;6445;52.490;13.378;2023-02-23T02:49:28;-1344.81;;;-146.10;100.00
12763;BME280;6445;52.490;13.378;2023-02-23T02:54:42;-1344.81;;;-146.10;100.00
12763;BME280;6445;52.490;13.378;2023-02-23T02:57:12;-1849.97;;;-146.10;100.00
12763;BME280;6445;52.490;13.378;2023-02-23T02:59:44;-1849.97;;;-146.10;100.00
12763;BME280;6445;52.490;13.378;2023-02-23T03:02:31;-2102.50;;;-146.10;100.00
12763;BME280;6445;52.490;13.378;2023-02-23T03:05:18;-2355.03;;;-146.10;100.00
12763;BME280;6445;52.490;13.378;2023-02-23T03:11:13;-2355.03;;;-146.10;100.00
12763;BME280;6445;52.490;13.378;2023-02-23T03:17:17;-3112.53;;;-146.10;100.00
12763;BME280;6445;52.490;13.378;2023-02-23T03:23:20;-3112.53;;;-146.10;100.00
12763;BME280;6445;52.490;13.378;2023-02-23T03:32:24;-4627.06;;;-146.10;100.00
12763;BME280;6445;52.490;13.378;2023-02-23T03:35:34;-4374.69;;;-146.10;100.00
12763;BME280;6445;52.490;13.378;2023-02-23T03:38:41;-4879.41;;;-146.10;100.00
12763;BME280;6445;52.490;13.378;2023-02-23T03:41:29;-5131.78;;;-146.10;100.00
12763;BME280;6445;52.490;13.378;2023-02-23T03:44:20;-5131.78;;;-146.10;100.00
12763;BME280;6445;52.490;13.378;2023-02-23T03:47:08;-5384.09;;;-146.10;100.00
12763;BME280;6445;52.490;13.378;2023-02-23T03:49:55;-5888.72;;;-146.10;100.00
12763;BME280;6445;52.490;13.378;2023-02-23T03:52:52;-6141.00;;;-146.10;100.00
12763;BME280;6445;52.490;13.378;2023-02-23T03:55:42;-6393.25;;;-146.10;100.00
12763;BME280;6445;52.490;13.378;2023-02-23T03:58:32;-6393.25;;;-146.10;100.00
12763;BME280;6445;52.490;13.378;2023-02-23T04:01:19;-6645.50;;;-146.10;100.00
12763;BME280;6445;52.490;13.378;2023-02-23T04:04:06;-6645.50;;;-146.10;100.00
12763;BME280;6445;52.490;13.378;2023-02-23T04:06:51;-6897.75;;;-146.10;100.00
12763;BME280;6445;52.490;13.378;2023-02-23T04:09:37;-7149.94;;;-146.10;100.00
12763;BME280;6445;52.490;13.378;2023-02-23T04:15:59;-7654.34;;;-146.10;100.00
12763;BME280;6445;52.490;13.378;2023-02-23T04:18:28;-7906.50;;;-146.10;100.00
12763;BME280;6445;52.490;13.378;2023-02-23T04:20:55;-7906.50;;;-146.10;100.00
12763;BME280;6445;52.490;13.378;2023-02-23T04:23:21;-7906.50;;;-146.10;100.00
12763;BME280;6445;52.490;13.378;2023-02-23T04:25:48;-8158.66;;;-146.10;100.00
12763;BME280;6445;52.490;13.378;2023-02-23T04:28:13;-8158.66;;;-146.10;100.00
12763;BME280;6445;52.490;13.378;2023-02-23T04:30:38;-8158.66;;;-146.10;100.00
12763;BME280;6445;52.490;13.378;2023-02-23T04:33:04;-8410.78;;;-146.10;100.00
12763;BME280;6445;52.490;13.378;2023-02-23T04:35:30;-8662.91;;;-146.10;100.00
12763;BME280;6445;52.490;13.378;2023-02-23T04:37:56;-8662.91;;;-146.10;100.00
12763;BME280;6445;52.490;13.378;2023-02-23T04:40:21;-8662.91;;;-146.10;100.00
12763;BME280;6445;52.490;13.378;2023-02-23T04:42:47;-8915.00;;;-146.10;100.00
12763;BME280;6445;52.490;13.378;2023-02-23T04:45:12;-9167.06;;;-146.10;100.00
12763;BME280;6445;52.490;13.378;2023-02-23T04:47:37;-9167.06;;;-146.10;100.00
12763;BME280;6445;52.490;13.378;2023-02-23T04:50:03;-9419.13;;;-146.10;100.00
12763;BME280;6445;52.490;13.378;2023-02-23T04:52:28;-9419.13;;;-146.10;100.00
12763;BME280;6445;52.490;13.378;2023-02-23T04:54:53;-9671.19;;;-146.10;100.00
12763;BME280;6445;52.490;13.378;2023-02-23T04:57:18;-9923.22;;;-146.10;100.00
12763;BME280;6445;52.490;13.378;2023-02-23T04:59:44;-10175.25;;;-146.10;100.00
12763;BME280;6445;52.490;13.378;2023-02-23T05:02:09;-10175.25;;;-146.10;100.00
12763;BME280;6445;52.490;13.378;2023-02-23T05:04:35;-10427.25;;;-146.10;100.00
12763;BME280;6445;52.490;13.378;2023-02-23T05:07:01;-10679.22;;;-146.10;100.00
12763;BME280;6445;52.490;13.378;2023-02-23T05:09:27;-10679.22;;;-146.10;100.00
12763;BME280;6445;52.490;13.378;2023-02-23T05:11:53;-10931.19;;;-146.10;100.00
12763;BME280;6445;52.490;13.378;2023-02-23T05:14:19;-11183.13;;;-146.10;100.00
12763;BME280;6445;52.490;13.378;2023-02-23T05:16:45;-11435.06;;;-146.10;100.00
12763;BME280;6445;52.490;13.378;2023-02-23T05:19:10;-11435.06;;;-146.10;100.00
12763;BME280;6445;52.490;13.378;2023-02-23T05:21:36;-11687.00;;;-146.10;100.00
12763;BME280;6445;52.490;13.378;2023-02-23T05:24:01;-11687.00;;;-146.10;100.00
12763;BME280;6445;52.490;13.378;2023-02-23T05:26:27;-11938.88;;;-146.10;100.00
12763;BME280;6445;52.490;13.378;2023-02-23T05:28:52;-11938.88;;;-146.10;100.00
12763;BME280;6445;52.490;13.378;2023-02-23T05:31:18;-11938.88;;;-146.10;100.00
12763;BME280;6445;52.490;13.378;2023-02-23T05:33:44;-11938.88;;;-146.10;100.00
12763;BME280;6445;52.490;13.378;2023-02-23T05:36:14;-12190.78;;;-146.10;100.00
12763;BME280;6445;52.490;13.378;2023-02-23T05:38:41;-12190.78;;;-146.10;100.00
12763;BME280;6445;52.490;13.378;2023-02-23T05:41:08;-12190.78;;;-146.10;100.00
12763;BME280;6445;52.490;13.378;2023-02-23T05:43:34;-12442.63;;;-146.10;100.00
12763;BME280;6445;52.490;13.378;2023-02-23T05:45:59;-12442.63;;;-146.10;100.00
12763;BME280;6445;52.490;13.378;2023-02-23T05:48:26;-12442.63;;;-146.10;100.00
12763;BME280;6445;52.490;13.378;2023-02-23T05:50:51;-12442.63;;;-146.10;100.00
12763;BME280;6445;52.490;13.378;2023-02-23T05:53:17;-12442.63;;;-146.10;100.00
12763;BME280;6445;52.490;13.378;2023-02-23T05:55:42;-12694.50;;;-146.10;100.00
12763;BME280;6445;52.490;13.378;2023-02-23T05:58:07;-12694.50;;;-146.10;100.00
12763;BME280;6445;52.490;13.378;2023-02-23T06:00:33;-12694.50;;;-146.10;100.00
12763;BME280;6445;52.490;13.378;2023-02-23T06:02:58;-12694.50;;;-146.10;100.00
12763;BME280;6445;52.490;13.378;2023-02-23T06:05:23;-12694.50;;;-146.10;100.00
12763;BME280;6445;52.490;13.378;2023-02-23T06:07:48;-12694.50;;;-146.10;100.00
12763;BME280;6445;52.490;13.378;2023-02-23T06:10:14;-12694.50;;;-146.10;100.00
12763;BME280;6445;52.490;13.378;2023-02-23T06:12:39;-12694.50;;;-146.10;100.00
12763;BME280;6445;52.490;13.378;2023-02-23T06:15:05;-12694.50;;;-146.10;100.00
12763;BME280;6445;52.490;13.378;2023-02-23T06:17:30;-12694.50;;;-146.10;100.00
12763;BME280;6445;52.490;13.378;2023-02-23T06:19:56;-12695.97;;;-146.10;100.00
12763;BME280;6445;52.490;13.378;2023-02-23T06:22:23;-12695.97;;;-146.10;100.00
12763;BME280;6445;52.490;13.378;2023-02-23T06:24:48;-12695.97;;;-146.10;100.00
12763;BME280;6445;52.490;13.378;2023-02-23T06:27:13;-12695.97;;;-146.10;100.00
12763;BME280;6445;52.490;13.378;2023-02-23T06:29:39;-12694.50;;;-146.10;100.00
12763;BME280;6445;52.490;13.378;2023-02-23T06:32:04;-12694.50;;;-146.10;100.00
12763;BME280;6445;52.490;13.378;2023-02-23T06:34:29;-12694.50;;;-146.10;100.00
12763;BME280;6445;52.490;13.378;2023-02-23T06:36:55;-12694.50;;;-146.10;100.00
12763;BME280;6445;52.490;13.378;2023-02-23T06:39:20;-12442.63;;;-146.10;100.00
12763;BME280;6445;52.490;13.378;2023-02-23T06:41:45;-12442.63;;;-146.10;100.00
12763;BME280;6445;52.490;13.378;2023-02-23T06:44:10;-12190.78;;;-146.10;100.00
12763;BME280;6445;52.490;13.378;2023-02-23T06:46:36;-12190.78;;;-146.10;100.00
12763;BME280;6445;52.490;13.378;2023-02-23T06:49:02;-12190.78;;;-146.10;100.00
12763;BME280;6445;52.490;13.378;2023-02-23T06:51:27;-11687.00;;;-146.10;100.00
12763;BME280;6445;52.490;13.378;2023-02-23T06:53:52;-11687.00;;;-146.10;100.00
12763;BME280;6445;52.490;13.378;2023-02-23T06:56:18;-11183.13;;;-146.10;100.00
12763;BME280;6445;52.490;13.378;2023-02-23T06:58:43;-11183.13;;;-146.10;100.00
12763;BME280;6445;52.490;13.378;2023-02-23T07:01:09;-10679.22;;;-146.10;100.00
12763;BME280;6445;52.490;13.378;2023-02-23T07:03:37;-10427.25;;;-146.10;100.00
12763;BME280;6445;52.490;13.378;2023-02-23T07:06:02;-9671.19;;;-146.10;100.00
12763;BME280;6445;52.490;13.378;2023-02-23T07:08:29;-9167.06;;;-146.10;100.00
12763;BME280;6445;52.490;13.378;2023-02-23T07:10:55;-8915.00;;;-146.10;100.00
12763;BME280;6445;52.490;13.378;2023-02-23T07:13:21;-8158.66;;;-146.10;100.00
12763;BME280;6445;52.490;13.378;2023-02-23T07:15:47;-7906.50;;;-146.10;100.00
12763;BME280;6445;52.490;13.378;2023-02-23T07:18:12;-8158.66;;;-146.10;100.00
12763;BME280;6445;52.490;13.378;2023-02-23T07:20:37;-7906.50;;;-146.10;100.00
12763;BME280;6445;52.490;13.378;2023-02-23T07:23:02;-7149.94;;;-146.10;100.00
12763;BME280;6445;52.490;13.378;2023-02-23T07:25:29;-6645.50;;;-146.10;100.00
12763;BME280;6445;52.490;13.378;2023-02-23T07:27:55;-4879.41;;;-146.10;100.00
12763;BME280;6445;52.490;13.378;2023-02-23T07:30:20;-4122.28;;;-146.10;100.00
12763;BME280;6445;52.490;13.378;2023-02-23T07:32:52;-3617.44;;;-146.10;100.00
12763;BME280;6445;52.490;13.378;2023-02-23T07:35:18;-4122.28;;;-146.10;100.00
12763;BME280;6445;52.490;13.378;2023-02-23T07:37:44;-3869.88;;;-146.10;100.00
12763;BME280;6445;52.490;13.378;2023-02-23T07:40:10;-3112.53;;;-146.10;100.00
12763;BME280;6445;52.490;13.378;2023-02-23T07:42:38;-2607.53;;;-146.10;100.00
12763;BME280;6445;52.490;13.378;2023-02-23T07:45:04;-2355.03;;;-146.10;100.00
12763;BME280;6445;52.490;13.378;2023-02-23T07:47:29;-1849.97;;;-146.10;100.00
12763;BME280;6445;52.490;13.378;2023-02-23T07:49:59;423.72;;;-146.10;100.00
12763;BME280;6445;52.490;13.378;2023-02-23T07:52:26;929.16;;;-146.10;100.00
12763;BME280;6445;52.490;13.378;2023-02-23T07:54:52;1181.91;;;-146.10;100.00
12763;BME280;6445;52.490;13.378;2023-02-23T07:57:18;4469.09;;;-146.10;100.00
12763;BME280;6445;52.490;13.378;2023-02-23T07:59:44;10038.41;;;-146.10;100.00
12763;BME280;6445;52.490;13.378;2023-02-23T08:02:11;11558.72;;;-146.10;100.00
12763;BME280;6445;52.490;13.378;2023-02-23T08:04:37;16884.47;;;-146.10;100.00
12763;BME280;6445;52.490;13.378;2023-02-23T08:07:02;20439.00;;;-146.10;100.00
12763;BME280;6445;52.490;13.378;2023-02-23T08:09:28;27301.41;;;-146.10;100.00
12763;BME280;6445;52.490;13.378;2023-02-23T08:11:54;33001.09;;;-146.10;100.00
12763;BME280;6445;52.490;13.378;2023-02-23T08:14:19;39299.28;;;-146.10;100.00
12763;BME280;6445;52.490;13.378;2023-02-23T08:16:47;43708.63;;;-146.10;100.00
12763;BME280;6445;52.490;13.378;2023-02-23T08:19:13;45136.22;;;-146.10;100.00
12763;BME280;6445;52.490;13.378;2023-02-23T08:21:38;47723.22;;;-146.10;100.00
12763;BME280;6445;52.490;13.378;2023-02-23T08:24:03;49362.19;;;-146.10;100.00
12763;BME280;6445;52.490;13.378;2023-02-23T08:26:29;51019.84;;;-146.10;100.00
12763;BME280;6445;52.490;13.378;2023-02-23T08:28:55;52258.03;;;-146.10;100.00
12763;BME280;6445;52.490;13.378;2023-02-23T08:31:20;54695.56;;;-146.10;100.00
12763;BME280;6445;52.490;13.378;2023-02-23T08:33:47;54407.28;;;-146.10;100.00
12763;BME280;6445;52.490;13.378;2023-02-23T08:36:12;54657.50;;;-146.10;100.00
12763;BME280;6445;52.490;13.378;2023-02-23T08:38:38;55646.53;;;-146.10;100.00
12763;BME280;6445;52.490;13.378;2023-02-23T08:41:04;57831.69;;;-146.10;100.00
12763;BME280;6445;52.490;13.378;2023-02-23T08:43:29;55222.06;;;-146.10;98.97
12763;BME280;6445;52.490;13.378;2023-02-23T08:45:55;56079.06;;;-146.10;100.00
12763;BME280;6445;52.490;13.378;2023-02-23T08:48:20;56902.22;;;-146.10;100.00
12763;BME280;6445;52.490;13.378;2023-02-23T08:50:49;57955.91;;;-146.10;100.00
12763;BME280;6445;52.490;13.378;2023-02-23T08:53:15;58312.56;;;-146.10;100.00
12763;BME280;6445;52.490;13.378;2023-02-23T08:55:41;61417.47;;;-146.10;100.00
12763;BME280;6445;52.490;13.378;2023-02-23T08:58:07;64587.03;;;-146.10;100.00
12763;BME280;6445;52.490;13.378;2023-02-23T09:00:35;65470.13;;;-146.10;100.00
12763;BME280;6445;52.490;13.378;2023-02-23T09:03:00;65534.38;;;-146.10;100.00
12763;BME280;6445;52.490;13.378;2023-02-23T09:05:25;67556.25;;;-146.10;100.00
12763;BME280;6445;52.490;13.378;2023-02-23T09:07:51;66010.13;;;-146.10;100.00
12763;BME280;6445;52.490;13.378;2023-02-23T09:10:19;64109.44;;;-146.10;100.00
12763;BME280;6445;52.490;13.378;2023-02-23T09:12:44;64199.72;;;-146.10;100.00
12763;BME280;6445;52.490;13.378;2023-02-23T09:15:10;63383.09;;;-146.10;100.00
12763;BME280;6445;52.490;13.378;2023-02-23T09:17:35;67504.03;;;-146.10;100.00
12763;BME280;6445;52.490;13.378;2023-02-23T09:20:01;64328.16;;;-146.10;100.00
12763;BME280;6445;52.490;13.378;2023-02-23T09:22:26;62755.19;;;-146.10;100.00
12763;BME280;6445;52.490;13.378;2023-02-23T09:24:51;61876.69;;;-146.10;100.00
12763;BME280;6445;52.490;13.378;2023-02-23T09:27:17;61624.03;;;-146.10;100.00
12763;BME280;6445;52.490;13.378;2023-02-23T09:29:42;61720.28;;;-146.10;100.00
12763;BME280;6445;52.490;13.378;2023-02-23T09:32:09;60593.41;;;-146.10;99.54
12763;BME280;6445;52.490;13.378;2023-02-23T09:34:34;58737.34;;;-146.10;97.06
12763;BME280;6445;52.490;13.378;2023-02-23T09:37:01;56739.97;;;-146.10;94.05
12763;BME280;6445;52.490;13.378;2023-02-23T09:39:26;56555.72;;;-146.10;93.41
12763;BME280;6445;52.490;13.378;2023-02-23T09:42:04;56093.09;;;-146.10;93.10
12763;BME280;6445;52.490;13.378;2023-02-23T09:44:41;55376.25;;;-146.10;91.32
12763;BME280;6445;52.490;13.378;2023-02-23T09:47:23;57120.53;;;-146.10;95.47
12763;BME280;6445;52.490;13.378;2023-02-23T09:49:50;57004.38;;;-146.10;93.19
12763;BME280;6445;52.490;13.378;2023-02-23T09:52:19;53910.91;;;-146.10;85.78
12763;BME280;6445;52.490;13.378;2023-02-23T09:54:45;54381.28;;;-146.10;88.36
12763;BME280;6445;52.490;13.378;2023-02-23T09:57:14;52878.28;;;-146.10;80.45
12763;BME280;6445;52.490;13.378;2023-02-23T09:59:41;52880.28;;;-146.10;82.02
12763;BME280;6445;52.490;13.378;2023-02-23T10:02:17;52266.03;;;-146.10;73.55
12763;BME280;6445;52.490;13.378;2023-02-23T10:04:47;52180.00;;;-146.10;71.82
12763;BME280;6445;52.490;13.378;2023-02-23T10:07:33;52076.00;;;-146.10;67.63
12763;BME280;6445;52.490;13.378;2023-02-23T10:10:20;51991.97;;;-146.10;60.23
12763;BME280;6445;52.490;13.378;2023-02-23T10:12:56;52007.97;;;-146.10;61.79
12763;BME280;6445;52.490;13.378;2023-02-23T10:15:49;52033.97;;;-146.10;59.85
12763;BME280;6445;52.490;13.378;2023-02-23T10:18:26;52023.97;;;-146.10;57.76
12763;BME280;6445;52.490;13.378;2023-02-23T10:21:04;52094.00;;;-146.10;55.37
12763;BME280;6445;52.490;13.378;2023-02-23T10:26:04;52154.00;;;-146.10;46.74
12763;BME280;6445;52.490;13.378;2023-02-23T10:28:35;52154.00;;;-146.10;50.37
12763;BME280;6445;52.490;13.378;2023-02-23T10:31:01;52104.00;;;-146.10;54.68
12763;BME280;6445;52.490;13.378;2023-02-23T10:33:37;52134.00;;;-146.10;51.48
12763;BME280;6445;52.490;13.378;2023-02-23T10:36:36;52122.00;;;-146.10;53.43
12763;BME280;6445;52.490;13.378;2023-02-23T10:39:06;52130.00;;;-146.10;54.09
12763;BME280;6445;52.490;13.378;2023-02-23T10:41:33;52100.00;;;-146.10;55.88
12763;BME280;6445;52.490;13.378;2023-02-23T10:43:59;52114.00;;;-146.10;60.34
12763;BME280;6445;52.490;13.378;2023-02-23T10:46:30;52116.00;;;-146.10;55.07
12763;BME280;6445;52.490;13.378;2023-02-23T10:48:59;52100.00;;;-146.10;56.44
12763;BME280;6445;52.490;13.378;2023-02-23T10:51:28;52120.00;;;-146.10;53.96
12763;BME280;6445;52.490;13.378;2023-02-23T10:53:54;52112.00;;;-146.10;55.01
12763;BME280;6445;52.490;13.378;2023-02-23T10:56:21;52138.00;;;-146.10;53.96
12763;BME280;6445;52.490;13.378;2023-02-23T10:58:49;52082.00;;;-146.10;59.15
12763;BME280;6445;52.490;13.378;2023-02-23T11:03:55;52102.00;;;-146.10;62.59
12763;BME280;6445;52.490;13.378;2023-02-23T11:06:31;52104.00;;;-146.10;62.73
12763;BME280;6445;52.490;13.378;2023-02-23T11:08:57;52092.00;;;-146.10;61.41
12763;BME280;6445;52.490;13.378;2023-02-23T11:11:25;52094.00;;;-146.10;60.29
12763;BME280;6445;52.490;13.378;2023-02-23T11:13:54;52122.00;;;-146.10;61.69
12763;BME280;6445;52.490;13.378;2023-02-23T11:16:28;52114.00;;;-146.10;57.36
12763;BME280;6445;52.490;13.378;2023-02-23T11:18:59;52106.00;;;-146.10;56.58
12763;BME280;6445;52.490;13.378;2023-02-23T11:21:37;52138.00;;;-146.10;54.43
12763;BME280;6445;52.490;13.378;2023-02-23T11:24:18;52098.00;;;-146.10;57.41
12763;BME280;6445;52.490;13.378;2023-02-23T11:26:47;52136.00;;;-146.10;57.85
12763;BME280;6445;52.490;13.378;2023-02-23T11:29:31;52128.00;;;-146.10;57.18
12763;BME280;6445;52.490;13.378;2023-02-23T11:32:02;52100.00;;;-146.10;58.92
12763;BME280;6445;52.490;13.378;2023-02-23T11:34:34;52102.00;;;-146.10;59.96
12763;BME280;6445;52.490;13.378;2023-02-23T11:40:17;52114.00;;;-146.10;62.15
12763;BME280;6445;52.490;13.378;2023-02-23T11:42:52;52118.00;;;-146.10;62.40
12763;BME280;6445;52.490;13.378;2023-02-23T11:45:18;52120.00;;;-146.10;63.50
12763;BME280;6445;52.490;13.378;2023-02-23T11:47:46;52128.00;;;-146.10;62.54
12763;BME280;6445;52.490;13.378;2023-02-23T11:50:24;52136.00;;;-146.10;62.74
12763;BME280;6445;52.490;13.378;2023-02-23T11:52:58;52140.00;;;-146.10;63.31
12763;BME280;6445;52.490;13.378;2023-02-23T11:55:27;52124.00;;;-146.10;62.38
12763;BME280;6445;52.490;13.378;2023-02-23T11:58:07;52136.00;;;-146.10;61.48
12763;BME280;6445;52.490;13.378;2023-02-23T12:00:32;52130.00;;;-146.10;64.52
12763;BME280;6445;52.490;13.378;2023-02-23T12:02:59;52160.00;;;-146.10;66.42
12763;BME280;6445;52.490;13.378;2023-02-23T12:05:29;52170.00;;;-146.10;65.34
12763;BME280;6445;52.490;13.378;2023-02-23T12:08:03;52200.03;;;-146.10;68.91
12763;BME280;6445;52.490;13.378;2023-02-23T12:10:38;52230.03;;;-146.10;68.85
12763;BME280;6445;52.490;13.378;2023-02-23T12:13:23;52274.03;;;-146.10;69.20
12763;BME280;6445;52.490;13.378;2023-02-23T12:16:01;52222.03;;;-146.10;67.06
12763;BME280;6445;52.490;13.378;2023-02-23T12:21:31;52360.06;;;-146.10;72.36
12763;BME280;6445;52.490;13.378;2023-02-23T12:27:09;52304.06;;;-146.10;69.84
12763;BME280;6445;52.490;13.378;2023-02-23T12:29:41;52364.06;;;-146.10;72.77
12763;BME280;6445;52.490;13.378;2023-02-23T12:32:51;52502.13;;;-146.10;74.83
12763;BME280;6445;52.490;13.378;2023-02-23T12:35:24;52494.13;;;-146.10;74.35
12763;BME280;6445;52.490;13.378;2023-02-23T12:38:02;52754.22;;;-146.10;79.24
12763;BME280;6445;52.490;13.378;2023-02-23T12:40:34;53330.53;;;-146.10;81.50
12763;BME280;6445;52.490;13.378;2023-02-23T12:43:06;53180.44;;;-146.10;80.26
12763;BME280;6445;52.490;13.378;2023-02-23T12:45:58;53028.34;;;-146.10;78.65
12763;BME280;6445;52.490;13.378;2023-02-23T12:48:45;52890.28;;;-146.10;77.25
12763;BME280;6445;52.490;13.378;2023-02-23T12:51:31;52912.31;;;-146.10;78.10
12763;BME280;6445;52.490;13.378;2023-02-23T12:53:58;53102.41;;;-146.10;79.22
12763;BME280;6445;52.490;13.378;2023-02-23T12:56:37;53192.44;;;-146.10;80.26
12763;BME280;6445;52.490;13.378;2023-02-23T12:59:32;53264.47;;;-146.10;80.77
12763;BME280;6445;52.490;13.378;2023-02-23T13:02:13;53750.78;;;-146.10;83.88
12763;BME280;6445;52.490;13.378;2023-02-23T13:10:21;54091.03;;;-146.10;84.51
12763;BME280;6445;52.490;13.378;2023-02-23T13:13:19;54875.72;;;-146.10;86.73
12763;BME280;6445;52.490;13.378;2023-02-23T13:18:31;54835.69;;;-146.10;85.72
12763;BME280;6445;52.490;13.378;2023-02-23T13:21:06;55093.94;;;-146.10;86.07
12763;BME280;6445;52.490;13.378;2023-02-23T13:23:53;54977.81;;;-146.10;86.29
12763;BME280;6445;52.490;13.378;2023-02-23T13:26:27;54865.72;;;-146.10;85.65
12763;BME280;6445;52.490;13.378;2023-02-23T13:29:02;56037.03;;;-146.10;88.85
12763;BME280;6445;52.490;13.378;2023-02-23T13:31:34;56191.22;;;-146.10;88.64
12763;BME280;6445;52.490;13.378;2023-02-23T13:34:01;57555.22;;;-146.10;91.05
12763;BME280;6445;52.490;13.378;2023-02-23T13:36:29;58374.66;;;-146.10;92.19
12763;BME280;6445;52.490;13.378;2023-02-23T13:39:10;61367.34;;;-146.10;95.22
12763;BME280;6445;52.490;13.378;2023-02-23T13:41:50;62005.06;;;-146.10;95.80
12763;BME280;6445;52.490;13.378;2023-02-23T13:44:25;64418.47;;;-146.10;98.25
12763;BME280;6445;52.490;13.378;2023-02-23T13:52:25;65949.91;;;-146.10;99.68
12763;BME280;6445;52.490;13.378;2023-02-23T13:54:55;67467.91;;;-146.10;100.00